Terminal Aerodrome Forecast
Issued by NWS

Home | Current Version | Previous Version | Text Only | Print | Product List | Glossary On
Versions: 1 2 3 4 5 6 7 8 9 10 11 12 13 14 15 16 17 18 19 20 21 22 23 24 25 26 27 28 29 30
000
FTUS42 KTBW 311130
TAFRSW
TAF
KRSW 311130Z 3112/0112 04007KT P6SM SCT030 BKN070
     FM311500 07010KT P6SM FEW060 SCT070
     FM311800 07009KT P6SM VCTS FEW025CB SCT070
     FM010000 07007KT P6SM FEW020 SCT040=

USA.gov is the U.S. government's official web portal to all federal, state and local government web resources and services.